Time;durP1;ratioP1;P1;durP2;ratioP2;P2;SDS_P1;SDS_P2;PMS_P1;PMS_P2;Temp;Humidity;BMP_temperature;BMP_pressure;BME280_temperature;BME280_humidity;BME280_pressure;Samples;Min_cycle;Max_cycle;Signal;HPM_P1;HPM_P2
2022/03/12 00:01:05;;;;;;;;;;;10.90;99.90;;;;;;5022381;28;20016;-81
2022/03/12 00:03:32;;;;;;;;;;;10.70;99.90;;;;;;5020094;28;19933;-83
2022/03/12 00:06:00;;;;;;;;;;;10.70;99.90;;;;;;5031819;28;19929;-78
2022/03/12 00:08:29;;;;;;;;;;;10.80;99.90;;;;;;5024885;28;19983;-81
2022/03/12 00:10:56;;;;;;;;;;;10.70;99.90;;;;;;5018839;28;19979;-82
2022/03/12 00:13:24;;;;;;;;;;;10.70;99.90;;;;;;5023359;28;20012;-78
2022/03/12 00:15:51;;;;;;;;;;;10.70;99.90;;;;;;5022225;28;19929;-77
2022/03/12 00:18:18;;;;;;;;;;;10.70;99.90;;;;;;5032053;28;19925;-76
2022/03/12 00:20:48;;;;;;;;;;;10.70;99.90;;;;;;5022476;28;19925;-78
2022/03/12 00:23:16;;;;;;;;;;;10.70;99.90;;;;;;5032005;28;19943;-78
2022/03/12 00:25:44;;;;;;;;;;;10.70;99.90;;;;;;5025817;28;19945;-78
2022/03/12 00:28:12;;;;;;;;;;;10.70;99.90;;;;;;5031584;28;19937;-78
2022/03/12 00:30:43;;;;;;;;;;;10.70;99.90;;;;;;5024995;28;20008;-77
2022/03/12 00:33:10;;;;;;;;;;;10.70;99.90;;;;;;5022950;28;19929;-77
2022/03/12 00:35:37;;;;;;;;;;;10.70;99.90;;;;;;5024812;28;19941;-77
2022/03/12 00:38:04;;;;;;;;;;;10.70;99.90;;;;;;5021568;28;19956;-77
2022/03/12 00:40:31;;;;;;;;;;;10.60;99.90;;;;;;5025771;28;19926;-77
2022/03/12 00:42:57;;;;;;;;;;;10.60;99.90;;;;;;5026670;28;20012;-76
2022/03/12 00:45:29;;;;;;;;;;;10.60;99.90;;;;;;5018883;28;20385;-77
2022/03/12 00:47:58;;;;;;;;;;;10.60;99.90;;;;;;5023411;28;19925;-77
2022/03/12 00:50:25;;;;;;;;;;;10.60;99.90;;;;;;5024549;28;19925;-77
2022/03/12 00:52:51;;;;;;;;;;;10.50;99.90;;;;;;5021765;28;19933;-78
2022/03/12 00:55:18;;;;;;;;;;;10.50;99.90;;;;;;5018443;28;19948;-78
2022/03/12 00:57:44;;;;;;;;;;;10.40;99.90;;;;;;5026287;28;19929;-77
2022/03/12 01:00:13;;;;;;;;;;;10.40;99.90;;;;;;5030306;28;20036;-78
2022/03/12 01:02:40;;;;;;;;;;;10.40;99.90;;;;;;5038450;28;19972;-78
2022/03/12 01:05:09;;;;;;;;;;;10.40;99.90;;;;;;5035457;28;20496;-77
2022/03/12 01:07:36;;;;;;;;;;;10.30;99.90;;;;;;5035039;28;19932;-79
2022/03/12 01:10:03;;;;;;;;;;;10.20;99.90;;;;;;5038311;28;19996;-78
2022/03/12 01:12:30;;;;;;;;;;;10.30;99.90;;;;;;5025472;28;19992;-79
2022/03/12 01:14:57;;;;;;;;;;;10.20;99.90;;;;;;5030101;28;19933;-76
2022/03/12 01:17:24;;;;;;;;;;;10.10;99.90;;;;;;5026935;28;19999;-76
2022/03/12 01:19:50;;;;;;;;;;;10.10;99.90;;;;;;5018472;28;19936;-77
2022/03/12 01:22:20;;;;;;;;;;;10.10;99.90;;;;;;5022948;28;19925;-75
2022/03/12 01:24:47;;;;;;;;;;;10.10;99.90;;;;;;5028545;28;19947;-76
2022/03/12 01:27:15;;;;;;;;;;;10.20;99.90;;;;;;5028070;28;19925;-76
2022/03/12 01:29:41;;;;;;;;;;;10.10;99.90;;;;;;5015072;28;20366;-76
2022/03/12 01:32:09;;;;;;;;;;;10.10;99.90;;;;;;5026677;28;20016;-78
2022/03/12 01:34:35;;;;;;;;;;;10.10;99.90;;;;;;5030827;28;19968;-76
2022/03/12 01:37:02;;;;;;;;;;;10.20;99.90;;;;;;5026848;28;19925;-75
2022/03/12 01:39:30;;;;;;;;;;;10.20;99.90;;;;;;5029479;28;19925;-78
2022/03/12 01:41:57;;;;;;;;;;;10.30;99.90;;;;;;5028426;28;20004;-77
2022/03/12 01:44:24;;;;;;;;;;;10.30;99.90;;;;;;5020923;28;19937;-78
2022/03/12 01:46:51;;;;;;;;;;;10.30;99.90;;;;;;5019022;28;19948;-77
2022/03/12 01:49:18;;;;;;;;;;;10.30;99.90;;;;;;5025784;28;20324;-76
2022/03/12 01:51:45;;;;;;;;;;;10.40;99.90;;;;;;5020406;28;19933;-75
2022/03/12 01:54:13;;;;;;;;;;;10.40;99.90;;;;;;5029278;28;19964;-75
2022/03/12 01:56:41;;;;;;;;;;;10.30;99.90;;;;;;5015726;28;19932;-76
2022/03/12 01:59:08;;;;;;;;;;;10.30;99.90;;;;;;5026571;28;19987;-76
2022/03/12 02:01:35;;;;;;;;;;;10.30;99.90;;;;;;5026909;28;19971;-76
2022/03/12 02:04:04;;;;;;;;;;;10.30;99.90;;;;;;5026818;28;19925;-76
2022/03/12 02:06:31;;;;;;;;;;;10.30;99.90;;;;;;5019586;28;19925;-76
2022/03/12 02:08:58;;;;;;;;;;;10.30;99.90;;;;;;5024487;28;19968;-76
2022/03/12 02:11:27;;;;;;;;;;;10.20;99.90;;;;;;5024670;28;20307;-76
2022/03/12 02:14:00;;;;;;;;;;;10.20;99.90;;;;;;5026811;28;19932;-76
2022/03/12 02:16:27;;;;;;;;;;;10.20;99.90;;;;;;5027014;28;20342;-75
2022/03/12 02:18:53;;;;;;;;;;;10.20;99.90;;;;;;5030810;28;20016;-76
2022/03/12 02:21:35;;;;;;;;;;;10.10;99.90;;;;;;5028519;28;20376;-75
2022/03/12 02:24:04;;;;;;;;;;;10.10;99.90;;;;;;5028845;28;19929;-75
2022/03/12 02:26:31;;;;;;;;;;;10.10;99.90;;;;;;5013015;28;19929;-75
2022/03/12 02:28:58;;;;;;;;;;;10.10;99.90;;;;;;5026451;28;20027;-76
2022/03/12 02:31:26;;;;;;;;;;;10.10;99.90;;;;;;5019779;28;20024;-76
2022/03/12 02:33:53;;;;;;;;;;;10.10;99.90;;;;;;5012582;28;19933;-75
2022/03/12 02:36:26;;;;;;;;;;;10.40;99.90;;;;;;5026506;28;19932;-76
2022/03/12 02:38:53;;;;;;;;;;;10.10;99.90;;;;;;5022189;28;19960;-75
2022/03/12 02:41:22;;;;;;;;;;;10.10;99.90;;;;;;5024072;28;20287;-76
2022/03/12 02:43:49;;;;;;;;;;;10.20;99.90;;;;;;5022594;28;19926;-75
2022/03/12 02:46:16;;;;;;;;;;;10.20;99.90;;;;;;5016079;28;19925;-76
2022/03/12 02:48:48;;;;;;;;;;;10.10;99.90;;;;;;5027493;28;19931;-76
2022/03/12 02:51:16;;;;;;;;;;;10.10;99.90;;;;;;5024939;28;19925;-75
2022/03/12 02:53:42;;;;;;;;;;;10.10;99.90;;;;;;5024685;28;20280;-75
2022/03/12 02:56:09;;;;;;;;;;;10.10;99.90;;;;;;5018154;28;20281;-75
2022/03/12 02:58:38;;;;;;;;;;;10.10;99.90;;;;;;5022672;28;19974;-74
2022/03/12 03:01:05;;;;;;;;;;;10.00;99.90;;;;;;5022471;28;20317;-75
2022/03/12 03:03:35;;;;;;;;;;;9.90;99.90;;;;;;5021881;28;20418;-75
2022/03/12 03:06:02;;;;;;;;;;;10.00;99.90;;;;;;5026554;28;20358;-75
2022/03/12 03:08:29;;;;;;;;;;;9.90;99.90;;;;;;5026155;28;19932;-75
2022/03/12 03:10:57;;;;;;;;;;;9.90;99.90;;;;;;5033822;28;20020;-75
2022/03/12 03:13:32;;;;;;;;;;;10.00;99.90;;;;;;5024861;28;19933;-75
2022/03/12 03:16:01;;;;;;;;;;;10.00;99.90;;;;;;5029374;28;20403;-76
2022/03/12 03:18:29;;;;;;;;;;;10.00;99.90;;;;;;5023498;28;19925;-75
2022/03/12 03:20:56;;;;;;;;;;;10.10;99.90;;;;;;5016494;28;19983;-75
2022/03/12 03:23:23;;;;;;;;;;;10.00;99.90;;;;;;5018399;28;19925;-76
2022/03/12 03:25:50;;;;;;;;;;;10.00;99.90;;;;;;5022232;28;19925;-75
2022/03/12 03:28:17;;;;;;;;;;;9.90;99.90;;;;;;5025970;28;19952;-75
2022/03/12 03:30:44;;;;;;;;;;;9.80;99.90;;;;;;5021159;28;19935;-75
2022/03/12 03:33:13;;;;;;;;;;;9.90;99.90;;;;;;5017336;28;19932;-75
2022/03/12 03:35:40;;;;;;;;;;;9.90;99.90;;;;;;5023099;28;19931;-75
2022/03/12 03:38:06;;;;;;;;;;;9.80;99.90;;;;;;5033554;28;19931;-76
2022/03/12 03:40:33;;;;;;;;;;;9.80;99.90;;;;;;5018874;28;19929;-75
2022/03/12 03:43:00;;;;;;;;;;;9.80;99.90;;;;;;5017026;28;20384;-75
2022/03/12 03:45:28;;;;;;;;;;;9.80;99.90;;;;;;5017937;28;19925;-74
2022/03/12 03:47:55;;;;;;;;;;;9.80;99.90;;;;;;5017683;28;20304;-75
2022/03/12 03:50:25;;;;;;;;;;;9.90;99.90;;;;;;5021305;28;19929;-76
2022/03/12 03:52:54;;;;;;;;;;;9.90;99.90;;;;;;5019045;28;19930;-75
2022/03/12 03:55:21;;;;;;;;;;;9.90;99.90;;;;;;5015283;28;19932;-74
2022/03/12 03:57:47;;;;;;;;;;;9.90;99.90;;;;;;5016978;28;19933;-75
2022/03/12 04:00:14;;;;;;;;;;;9.90;99.90;;;;;;5016111;28;19979;-75
2022/03/12 04:02:41;;;;;;;;;;;9.90;99.90;;;;;;5022859;28;20023;-75
2022/03/12 04:05:08;;;;;;;;;;;9.90;99.90;;;;;;5018741;28;20517;-75
2022/03/12 04:07:36;;;;;;;;;;;9.90;99.90;;;;;;5014797;28;19925;-75
2022/03/12 04:10:03;;;;;;;;;;;9.90;99.90;;;;;;5017475;28;19939;-75
2022/03/12 04:12:30;;;;;;;;;;;9.90;99.90;;;;;;5018401;28;20634;-75
2022/03/12 04:14:57;;;;;;;;;;;9.90;99.90;;;;;;5016635;28;20349;-77
2022/03/12 04:17:24;;;;;;;;;;;9.90;99.90;;;;;;5017555;28;19932;-77
2022/03/12 04:19:51;;;;;;;;;;;9.90;99.90;;;;;;5023310;28;20020;-75
2022/03/12 04:22:18;;;;;;;;;;;9.90;99.90;;;;;;5021844;28;19925;-74
2022/03/12 04:24:46;;;;;;;;;;;9.90;99.90;;;;;;5025059;28;19931;-74
2022/03/12 04:27:13;;;;;;;;;;;9.90;99.90;;;;;;5019986;28;20469;-75
2022/03/12 04:29:40;;;;;;;;;;;10.00;99.90;;;;;;5016314;28;20064;-75
2022/03/12 04:32:10;;;;;;;;;;;10.00;99.90;;;;;;5013762;28;20027;-76
2022/03/12 04:34:37;;;;;;;;;;;10.00;99.90;;;;;;5018220;28;19992;-77
2022/03/12 04:37:04;;;;;;;;;;;9.90;99.90;;;;;;5023291;28;19933;-75
2022/03/12 04:39:31;;;;;;;;;;;10.00;99.90;;;;;;5015417;28;19926;-75
2022/03/12 04:41:59;;;;;;;;;;;10.00;99.90;;;;;;5020415;28;19968;-76
2022/03/12 04:44:26;;;;;;;;;;;10.00;99.90;;;;;;5021807;28;20330;-76
2022/03/12 04:46:52;;;;;;;;;;;10.00;99.90;;;;;;5024074;28;19928;-76
2022/03/12 04:49:19;;;;;;;;;;;9.90;99.90;;;;;;5017818;28;19925;-77
2022/03/12 04:51:46;;;;;;;;;;;10.00;99.90;;;;;;5013898;28;19937;-75
2022/03/12 04:54:12;;;;;;;;;;;10.00;99.90;;;;;;5014855;28;19932;-76
2022/03/12 04:56:39;;;;;;;;;;;10.10;99.90;;;;;;5017258;28;20497;-77
2022/03/12 04:59:07;;;;;;;;;;;9.60;99.90;;;;;;5021016;28;19928;-77
2022/03/12 05:01:34;;;;;;;;;;;9.60;99.90;;;;;;5015306;28;19933;-75
2022/03/12 05:04:00;;;;;;;;;;;9.50;99.90;;;;;;5019855;28;19933;-75
2022/03/12 05:06:27;;;;;;;;;;;9.50;99.90;;;;;;5016786;28;19926;-76
2022/03/12 05:08:55;;;;;;;;;;;9.40;99.90;;;;;;5019740;28;19929;-76
2022/03/12 05:11:22;;;;;;;;;;;9.40;99.90;;;;;;5017289;28;19929;-76
2022/03/12 05:13:53;;;;;;;;;;;9.30;99.90;;;;;;5021663;28;19930;-76
2022/03/12 05:16:22;;;;;;;;;;;9.30;99.90;;;;;;5022010;28;19930;-76
2022/03/12 05:18:48;;;;;;;;;;;9.20;99.90;;;;;;5018055;28;19951;-75
2022/03/12 05:21:15;;;;;;;;;;;9.10;99.90;;;;;;5015361;28;19969;-76
2022/03/12 05:23:41;;;;;;;;;;;9.10;99.90;;;;;;5020918;28;20020;-76
2022/03/12 05:26:08;;;;;;;;;;;9.10;99.90;;;;;;5016036;28;20414;-76
2022/03/12 05:28:36;;;;;;;;;;;9.10;99.90;;;;;;5021664;28;20414;-78
2022/03/12 05:31:04;;;;;;;;;;;9.00;99.90;;;;;;5020080;28;19930;-76
2022/03/12 05:33:32;;;;;;;;;;;9.00;99.90;;;;;;5030365;28;20400;-76
2022/03/12 05:35:59;;;;;;;;;;;9.00;99.90;;;;;;5019947;28;20027;-76
2022/03/12 05:38:27;;;;;;;;;;;9.00;99.90;;;;;;5026861;28;19933;-76
2022/03/12 05:40:55;;;;;;;;;;;9.20;99.90;;;;;;5025960;28;19933;-76
2022/03/12 05:43:21;;;;;;;;;;;9.00;99.90;;;;;;5020685;28;19933;-76
2022/03/12 05:45:50;;;;;;;;;;;8.90;99.90;;;;;;5019659;28;19968;-76
2022/03/12 05:48:17;;;;;;;;;;;9.00;99.90;;;;;;5032473;28;20452;-77
2022/03/12 05:50:46;;;;;;;;;;;8.80;99.90;;;;;;5021937;28;19928;-77
2022/03/12 05:53:14;;;;;;;;;;;8.90;99.90;;;;;;5026589;28;19925;-77
2022/03/12 05:55:41;;;;;;;;;;;8.80;99.90;;;;;;5026767;28;19979;-75
2022/03/12 05:58:08;;;;;;;;;;;8.80;99.90;;;;;;5015354;28;19932;-76
2022/03/12 06:00:35;;;;;;;;;;;8.70;99.90;;;;;;5018603;28;19953;-75
2022/03/12 06:03:02;;;;;;;;;;;8.80;99.90;;;;;;5031491;28;19925;-76
2022/03/12 06:05:29;;;;;;;;;;;8.80;99.90;;;;;;5017267;28;19933;-78
2022/03/12 06:07:59;;;;;;;;;;;8.80;99.90;;;;;;5032821;28;19964;-77
2022/03/12 06:10:28;;;;;;;;;;;8.70;99.90;;;;;;5026715;28;19929;-77
2022/03/12 06:12:58;;;;;;;;;;;8.70;99.90;;;;;;5030148;28;19931;-78
2022/03/12 06:15:25;;;;;;;;;;;8.80;99.90;;;;;;5017991;28;19931;-78
2022/03/12 06:17:51;;;;;;;;;;;8.70;99.90;;;;;;5035303;28;19928;-77
2022/03/12 06:20:20;;;;;;;;;;;8.70;99.90;;;;;;5018739;28;20061;-77
2022/03/12 06:22:47;;;;;;;;;;;8.70;99.90;;;;;;5039274;28;19929;-78
2022/03/12 06:25:16;;;;;;;;;;;8.70;99.90;;;;;;5034158;28;19947;-77
2022/03/12 06:27:47;;;;;;;;;;;8.70;99.90;;;;;;5023949;28;19987;-76
2022/03/12 06:30:16;;;;;;;;;;;8.80;99.90;;;;;;5028376;28;19957;-77
2022/03/12 06:32:43;;;;;;;;;;;8.80;99.90;;;;;;5027521;28;19925;-77
2022/03/12 06:35:11;;;;;;;;;;;8.80;99.90;;;;;;5012789;28;20309;-77
2022/03/12 06:37:38;;;;;;;;;;;8.90;99.90;;;;;;5025016;28;19932;-78
2022/03/12 06:40:07;;;;;;;;;;;8.90;99.90;;;;;;5022767;28;19929;-77
2022/03/12 06:42:35;;;;;;;;;;;8.90;99.90;;;;;;5028082;28;20385;-77
2022/03/12 06:45:01;;;;;;;;;;;9.00;99.90;;;;;;5019470;28;20665;-78
2022/03/12 06:47:31;;;;;;;;;;;9.00;99.90;;;;;;5024599;28;19925;-77
2022/03/12 06:49:58;;;;;;;;;;;9.10;99.90;;;;;;5027190;28;19926;-76
2022/03/12 06:52:26;;;;;;;;;;;9.10;99.90;;;;;;5031698;28;19928;-77
2022/03/12 06:54:52;;;;;;;;;;;9.20;99.90;;;;;;5033442;28;19987;-77
2022/03/12 06:57:19;;;;;;;;;;;9.10;99.90;;;;;;5034364;28;19924;-77
2022/03/12 06:59:47;;;;;;;;;;;9.20;99.90;;;;;;5031563;28;20717;-76
2022/03/12 07:02:14;;;;;;;;;;;9.20;99.90;;;;;;5018274;28;19931;-77
2022/03/12 07:04:40;;;;;;;;;;;9.30;99.90;;;;;;5030592;28;19929;-76
2022/03/12 07:07:07;;;;;;;;;;;9.30;99.90;;;;;;5028494;28;19925;-76
2022/03/12 07:09:34;;;;;;;;;;;9.40;99.90;;;;;;5017634;28;19931;-76
2022/03/12 07:12:03;;;;;;;;;;;9.40;99.90;;;;;;5025579;28;19925;-76
2022/03/12 07:14:30;;;;;;;;;;;9.50;99.90;;;;;;5032124;28;19925;-77
2022/03/12 07:16:58;;;;;;;;;;;9.60;99.90;;;;;;5028189;28;19931;-76
2022/03/12 07:19:25;;;;;;;;;;;9.60;99.90;;;;;;5022317;28;19932;-75
2022/03/12 07:21:51;;;;;;;;;;;9.60;99.90;;;;;;5028939;28;19925;-76
2022/03/12 07:24:18;;;;;;;;;;;9.70;99.90;;;;;;5033185;28;19976;-77
2022/03/12 07:26:45;;;;;;;;;;;9.80;99.90;;;;;;5025956;28;19932;-77
2022/03/12 07:29:12;;;;;;;;;;;9.80;99.90;;;;;;5024222;28;20388;-77
2022/03/12 07:31:39;;;;;;;;;;;9.90;99.90;;;;;;5033110;28;19925;-76
2022/03/12 07:34:07;;;;;;;;;;;10.00;99.90;;;;;;5034682;28;19926;-74
2022/03/12 07:36:34;;;;;;;;;;;10.00;99.90;;;;;;5029017;28;19925;-73
2022/03/12 07:39:03;;;;;;;;;;;10.10;99.90;;;;;;5033250;28;19931;-76
2022/03/12 07:41:29;;;;;;;;;;;10.10;99.90;;;;;;5029838;28;20360;-76
2022/03/12 07:43:56;;;;;;;;;;;10.30;99.90;;;;;;5031109;28;19932;-77
2022/03/12 07:46:23;;;;;;;;;;;10.30;99.90;;;;;;5028642;28;19987;-76
2022/03/12 07:48:49;;;;;;;;;;;10.30;99.90;;;;;;5030578;28;19931;-77
2022/03/12 07:51:17;;;;;;;;;;;10.30;99.90;;;;;;5020016;28;19959;-76
2022/03/12 07:53:44;;;;;;;;;;;10.20;99.90;;;;;;5021608;28;19925;-77
2022/03/12 07:56:11;;;;;;;;;;;10.40;99.90;;;;;;5035352;28;20288;-77
2022/03/12 07:58:39;;;;;;;;;;;10.60;99.90;;;;;;5021693;28;21896;-77
2022/03/12 08:01:08;;;;;;;;;;;10.70;99.90;;;;;;5020817;28;19925;-78
2022/03/12 08:03:35;;;;;;;;;;;11.10;99.90;;;;;;5023728;28;19932;-75
2022/03/12 08:06:03;;;;;;;;;;;11.70;99.90;;;;;;5023584;28;19930;-77
2022/03/12 08:08:31;;;;;;;;;;;12.10;98.80;;;;;;5024501;28;19925;-76
2022/03/12 08:13:44;;;;;;;;;;;12.90;96.50;;;;;;5018433;28;20395;-76
2022/03/12 08:16:13;;;;;;;;;;;12.80;95.10;;;;;;5021795;28;19940;-78
2022/03/12 08:18:39;;;;;;;;;;;13.00;94.30;;;;;;5020928;28;19925;-77
2022/03/12 08:21:06;;;;;;;;;;;12.50;94.20;;;;;;5022231;28;19931;-77
2022/03/12 08:23:35;;;;;;;;;;;12.60;94.90;;;;;;5024226;28;19925;-76
2022/03/12 08:26:01;;;;;;;;;;;12.50;94.20;;;;;;5019752;28;19925;-77
2022/03/12 08:28:28;;;;;;;;;;;12.50;94.10;;;;;;5025398;28;20028;-76
2022/03/12 08:30:55;;;;;;;;;;;12.70;93.80;;;;;;5023543;28;20020;-75
2022/03/12 08:33:21;;;;;;;;;;;13.10;92.60;;;;;;5027558;28;19925;-77
2022/03/12 08:35:49;;;;;;;;;;;12.90;92.40;;;;;;5022778;28;19935;-76
2022/03/12 08:38:15;;;;;;;;;;;12.80;92.60;;;;;;5021778;28;20032;-77
2022/03/12 08:40:46;;;;;;;;;;;12.90;92.10;;;;;;5022401;28;20015;-78
2022/03/12 08:43:13;;;;;;;;;;;12.90;92.20;;;;;;5024681;28;20362;-77
2022/03/12 08:45:40;;;;;;;;;;;13.10;91.60;;;;;;5027102;28;19929;-76
2022/03/12 08:48:07;;;;;;;;;;;13.40;90.80;;;;;;5018411;28;19932;-76
2022/03/12 08:50:34;;;;;;;;;;;13.90;90.50;;;;;;5018385;28;19947;-76
2022/03/12 08:53:00;;;;;;;;;;;13.80;90.00;;;;;;5017313;28;19981;-78
2022/03/12 08:55:27;;;;;;;;;;;14.20;87.10;;;;;;5022588;28;20028;-78
2022/03/12 08:57:56;;;;;;;;;;;14.20;85.20;;;;;;5021688;28;19925;-77
2022/03/12 09:00:25;;;;;;;;;;;13.70;86.80;;;;;;5018976;28;19926;-77
2022/03/12 09:02:52;;;;;;;;;;;14.00;85.50;;;;;;5012582;28;19929;-78
2022/03/12 09:05:19;;;;;;;;;;;14.20;83.70;;;;;;5018327;28;19930;-78
2022/03/12 09:07:48;;;;;;;;;;;13.80;83.30;;;;;;5022822;28;19932;-80
2022/03/12 09:10:16;;;;;;;;;;;14.60;82.60;;;;;;5015543;28;22422;-78
2022/03/12 09:12:43;;;;;;;;;;;15.00;80.10;;;;;;5019853;28;20367;-79
2022/03/12 09:15:13;;;;;;;;;;;14.70;78.50;;;;;;5018196;28;19947;-78
2022/03/12 09:17:40;;;;;;;;;;;14.40;78.50;;;;;;5020946;28;19995;-78
2022/03/12 09:20:07;;;;;;;;;;;13.80;79.10;;;;;;5020012;28;19932;-77
2022/03/12 09:22:34;;;;;;;;;;;13.40;81.40;;;;;;5025110;28;19933;-80
2022/03/12 09:25:01;;;;;;;;;;;13.50;83.10;;;;;;5022573;28;19930;-83
2022/03/12 09:27:28;;;;;;;;;;;13.80;79.50;;;;;;5038046;28;19925;-82
2022/03/12 09:29:55;;;;;;;;;;;13.80;80.40;;;;;;5036480;28;20261;-83
2022/03/12 09:32:23;;;;;;;;;;;14.10;78.60;;;;;;5023563;28;19963;-84
2022/03/12 09:34:50;;;;;;;;;;;14.80;77.40;;;;;;5025441;28;19936;-85
2022/03/12 09:37:17;;;;;;;;;;;14.20;76.30;;;;;;5016578;28;19976;-74
2022/03/12 09:39:44;;;;;;;;;;;14.00;76.50;;;;;;5020880;28;19929;-76
2022/03/12 09:42:10;;;;;;;;;;;13.80;78.30;;;;;;5020109;28;19925;-75
2022/03/12 09:44:37;;;;;;;;;;;14.10;76.40;;;;;;5015346;28;19926;-76
2022/03/12 09:47:04;;;;;;;;;;;14.00;75.60;;;;;;5017101;28;19947;-75
2022/03/12 09:49:33;;;;;;;;;;;14.00;74.70;;;;;;5022693;28;20666;-75
2022/03/12 09:52:00;;;;;;;;;;;13.80;75.10;;;;;;5020192;28;19933;-75
2022/03/12 09:54:28;;;;;;;;;;;13.30;77.10;;;;;;5018473;28;19925;-75
2022/03/12 09:56:55;;;;;;;;;;;13.00;79.50;;;;;;5018513;28;20296;-73
2022/03/12 09:59:22;;;;;;;;;;;12.90;79.30;;;;;;5015496;28;19925;-73
2022/03/12 10:01:48;;;;;;;;;;;12.80;80.00;;;;;;5018398;28;19979;-72
2022/03/12 10:04:15;;;;;;;;;;;13.00;78.10;;;;;;5019854;28;19933;-72
2022/03/12 10:06:44;;;;;;;;;;;12.90;78.00;;;;;;5016580;28;19931;-72
2022/03/12 10:09:10;;;;;;;;;;;13.30;77.50;;;;;;5011422;28;19933;-73
2022/03/12 10:11:37;;;;;;;;;;;13.70;76.40;;;;;;5016701;28;19925;-75
2022/03/12 10:14:04;;;;;;;;;;;13.70;75.70;;;;;;5023669;28;20508;-73
2022/03/12 10:16:31;;;;;;;;;;;13.40;76.20;;;;;;5012206;28;19929;-73
2022/03/12 10:18:59;;;;;;;;;;;13.20;77.30;;;;;;5030361;28;20372;-73
2022/03/12 10:21:26;;;;;;;;;;;13.30;78.00;;;;;;5028046;28;20004;-74
2022/03/12 10:23:54;;;;;;;;;;;13.20;76.40;;;;;;5018201;28;20000;-74
2022/03/12 10:26:21;;;;;;;;;;;13.20;77.20;;;;;;5020585;28;19925;-74
2022/03/12 10:28:48;;;;;;;;;;;13.20;77.30;;;;;;5014438;28;20393;-74
2022/03/12 10:31:18;;;;;;;;;;;13.10;77.80;;;;;;5019706;28;19931;-74
2022/03/12 10:33:45;;;;;;;;;;;13.10;78.20;;;;;;5018223;28;19976;-74
2022/03/12 10:36:12;;;;;;;;;;;13.20;77.50;;;;;;5018138;28;19925;-73
2022/03/12 10:38:40;;;;;;;;;;;13.20;77.70;;;;;;5019891;28;19937;-73
2022/03/12 10:41:08;;;;;;;;;;;13.30;76.60;;;;;;5014538;28;19936;-73
2022/03/12 10:43:43;;;;;;;;;;;13.40;75.20;;;;;;5016924;28;19994;-74
2022/03/12 10:46:10;;;;;;;;;;;13.50;76.00;;;;;;5012400;28;19929;-75
2022/03/12 10:48:38;;;;;;;;;;;13.60;75.10;;;;;;5012261;28;19925;-73
2022/03/12 10:51:05;;;;;;;;;;;13.70;75.70;;;;;;5013813;28;19926;-75
2022/03/12 10:53:32;;;;;;;;;;;13.80;74.40;;;;;;5011981;28;19940;-74
2022/03/12 10:55:59;;;;;;;;;;;13.80;74.00;;;;;;5014379;28;19940;-73
2022/03/12 10:58:27;;;;;;;;;;;13.80;75.20;;;;;;5018772;28;19925;-73
2022/03/12 11:00:55;;;;;;;;;;;13.60;74.20;;;;;;5019142;28;20008;-74
2022/03/12 11:03:23;;;;;;;;;;;13.50;73.10;;;;;;5021472;28;19925;-73
2022/03/12 11:05:51;;;;;;;;;;;13.30;74.40;;;;;;5012529;28;19925;-74
2022/03/12 11:08:20;;;;;;;;;;;13.20;74.50;;;;;;5010743;28;19929;-74
2022/03/12 11:10:50;;;;;;;;;;;13.20;74.90;;;;;;5008695;28;19925;-73
2022/03/12 11:13:34;;;;;;;;;;;13.20;75.60;;;;;;5011450;28;20242;-73
2022/03/12 11:16:12;;;;;;;;;;;13.30;74.70;;;;;;5022754;28;19996;-73
2022/03/12 11:18:40;;;;;;;;;;;13.40;74.00;;;;;;5019698;28;20292;-73
2022/03/12 11:21:06;;;;;;;;;;;13.30;74.60;;;;;;5020007;28;19936;-73
2022/03/12 11:23:33;;;;;;;;;;;13.40;74.60;;;;;;5020540;28;19940;-73
2022/03/12 11:26:05;;;;;;;;;;;13.60;74.50;;;;;;5016761;28;19933;-73
2022/03/12 11:28:35;;;;;;;;;;;13.60;74.60;;;;;;5009761;28;19940;-74
2022/03/12 11:31:04;;;;;;;;;;;13.80;73.40;;;;;;5022993;28;19933;-73
2022/03/12 11:33:30;;;;;;;;;;;13.80;73.70;;;;;;5022652;28;19936;-74
2022/03/12 11:36:01;;;;;;;;;;;13.90;72.90;;;;;;5017021;28;19932;-73
2022/03/12 11:38:28;;;;;;;;;;;13.90;72.00;;;;;;5023403;28;20448;-73
2022/03/12 11:41:03;;;;;;;;;;;13.90;71.80;;;;;;5018370;28;19926;-75
2022/03/12 11:43:31;;;;;;;;;;;14.00;72.10;;;;;;5023770;28;19925;-74
2022/03/12 11:45:59;;;;;;;;;;;14.70;69.40;;;;;;5017776;28;19940;-73
2022/03/12 11:48:27;;;;;;;;;;;14.20;69.30;;;;;;5020191;28;19932;-73
2022/03/12 11:50:53;;;;;;;;;;;14.20;68.40;;;;;;5025794;28;19979;-74
2022/03/12 11:53:21;;;;;;;;;;;14.00;67.80;;;;;;5020875;28;19929;-74
2022/03/12 11:55:48;;;;;;;;;;;14.00;68.40;;;;;;5019931;28;20012;-73
2022/03/12 11:58:15;;;;;;;;;;;14.10;68.40;;;;;;5015700;28;19925;-74
2022/03/12 12:00:44;;;;;;;;;;;14.00;67.70;;;;;;5026113;28;19937;-73
2022/03/12 12:03:12;;;;;;;;;;;14.10;69.30;;;;;;5023152;28;19925;-74
2022/03/12 12:05:41;;;;;;;;;;;14.10;68.80;;;;;;5026110;28;19925;-73
2022/03/12 12:08:08;;;;;;;;;;;14.00;67.80;;;;;;5017940;28;20024;-73
2022/03/12 12:10:41;;;;;;;;;;;13.80;68.90;;;;;;5019360;28;19925;-72
2022/03/12 12:13:08;;;;;;;;;;;13.90;69.80;;;;;;5015221;28;19929;-74
2022/03/12 12:15:36;;;;;;;;;;;14.20;68.30;;;;;;5017679;28;19929;-73
2022/03/12 12:18:03;;;;;;;;;;;14.30;65.80;;;;;;5015542;28;20373;-73
2022/03/12 12:20:31;;;;;;;;;;;14.30;65.70;;;;;;5015472;28;20384;-73
2022/03/12 12:22:59;;;;;;;;;;;14.10;65.60;;;;;;5012616;28;19929;-73
2022/03/12 12:25:26;;;;;;;;;;;14.10;65.90;;;;;;5022871;28;19995;-73
2022/03/12 12:27:54;;;;;;;;;;;14.10;65.90;;;;;;5019413;28;19948;-73
2022/03/12 12:33:17;;;;;;;;;;;14.40;63.20;;;;;;5018538;28;19963;-73
2022/03/12 12:35:45;;;;;;;;;;;14.20;62.70;;;;;;5016570;28;19968;-73
2022/03/12 12:38:13;;;;;;;;;;;14.40;63.60;;;;;;5019065;28;19957;-73
2022/03/12 12:40:43;;;;;;;;;;;14.50;64.40;;;;;;5018824;28;20380;-74
2022/03/12 12:43:12;;;;;;;;;;;14.60;60.90;;;;;;5015787;28;19936;-73
2022/03/12 12:45:59;;;;;;;;;;;14.60;61.10;;;;;;5012589;28;19932;-74
2022/03/12 12:48:28;;;;;;;;;;;14.70;60.70;;;;;;5015011;28;19953;-73
2022/03/12 12:51:06;;;;;;;;;;;14.70;61.60;;;;;;5013323;28;19933;-73
2022/03/12 12:53:35;;;;;;;;;;;15.10;61.20;;;;;;5028953;28;19955;-73
2022/03/12 12:56:17;;;;;;;;;;;15.40;60.00;;;;;;5020151;28;20398;-73
2022/03/12 12:58:48;;;;;;;;;;;15.30;60.20;;;;;;5019198;28;20333;-74
2022/03/12 13:01:17;;;;;;;;;;;15.10;58.90;;;;;;5020500;28;20362;-74
2022/03/12 13:03:53;;;;;;;;;;;14.90;58.50;;;;;;5020727;28;19925;-73
2022/03/12 13:06:45;;;;;;;;;;;15.30;58.60;;;;;;5017968;28;19955;-74
2022/03/12 13:09:12;;;;;;;;;;;15.40;57.90;;;;;;5016170;28;19947;-74
2022/03/12 13:11:40;;;;;;;;;;;15.50;56.60;;;;;;5015390;28;20004;-74
2022/03/12 13:14:09;;;;;;;;;;;15.70;56.60;;;;;;5015725;28;19965;-73
2022/03/12 13:16:48;;;;;;;;;;;15.50;55.80;;;;;;5022047;28;19932;-73
2022/03/12 13:19:27;;;;;;;;;;;15.70;54.30;;;;;;5019274;28;20398;-74
2022/03/12 13:21:58;;;;;;;;;;;16.10;53.20;;;;;;5019667;28;19932;-73
2022/03/12 13:24:24;;;;;;;;;;;16.00;53.20;;;;;;5020907;28;19926;-74
2022/03/12 13:26:51;;;;;;;;;;;15.70;53.60;;;;;;5019586;28;19925;-74
2022/03/12 13:29:21;;;;;;;;;;;15.60;52.50;;;;;;5020978;28;19941;-75
2022/03/12 13:31:48;;;;;;;;;;;15.40;53.30;;;;;;5017877;28;19933;-74
2022/03/12 13:34:15;;;;;;;;;;;15.40;52.20;;;;;;5017945;28;20455;-74
2022/03/12 13:36:46;;;;;;;;;;;15.30;52.70;;;;;;5022099;28;19932;-72
2022/03/12 13:39:15;;;;;;;;;;;15.10;53.00;;;;;;5017513;28;19933;-76
2022/03/12 13:41:43;;;;;;;;;;;15.00;53.10;;;;;;5013099;28;19968;-77
2022/03/12 13:44:09;;;;;;;;;;;15.00;52.10;;;;;;5013531;28;19929;-76
2022/03/12 13:46:36;;;;;;;;;;;15.30;52.50;;;;;;5016712;28;20008;-77
2022/03/12 13:49:09;;;;;;;;;;;15.40;52.40;;;;;;5017637;28;21837;-76
2022/03/12 13:51:39;;;;;;;;;;;15.50;52.40;;;;;;5016569;28;19925;-73
2022/03/12 13:54:06;;;;;;;;;;;15.60;52.00;;;;;;5012014;28;19987;-75
2022/03/12 13:56:35;;;;;;;;;;;15.80;51.70;;;;;;5019479;28;20018;-74
2022/03/12 13:59:04;;;;;;;;;;;15.80;50.90;;;;;;5019354;28;20408;-74
2022/03/12 14:01:34;;;;;;;;;;;15.50;51.00;;;;;;5013796;28;20036;-74
2022/03/12 14:04:01;;;;;;;;;;;15.40;51.90;;;;;;5010701;28;19989;-74
2022/03/12 14:06:32;;;;;;;;;;;15.30;52.00;;;;;;5017094;28;19929;-75
2022/03/12 14:08:59;;;;;;;;;;;15.30;52.50;;;;;;5027465;28;19931;-75
2022/03/12 14:11:38;;;;;;;;;;;15.60;52.40;;;;;;5018252;28;19984;-74
2022/03/12 14:14:07;;;;;;;;;;;15.60;51.90;;;;;;5012105;28;19972;-74
2022/03/12 14:16:40;;;;;;;;;;;15.70;51.90;;;;;;5018107;28;19933;-75
2022/03/12 14:19:07;;;;;;;;;;;15.60;51.00;;;;;;5016646;28;20039;-70
2022/03/12 14:21:36;;;;;;;;;;;15.50;51.20;;;;;;5011058;28;19932;-73
2022/03/12 14:24:13;;;;;;;;;;;15.50;51.70;;;;;;5015385;28;19930;-72
2022/03/12 14:26:48;;;;;;;;;;;15.50;51.40;;;;;;5018005;28;19932;-72
2022/03/12 14:29:16;;;;;;;;;;;15.60;52.00;;;;;;5019846;28;19925;-72
2022/03/12 14:31:43;;;;;;;;;;;15.60;51.50;;;;;;5019464;28;19929;-72